Tuesday, December 18, 2018, 12:30 PM EST
Back to Local

KLOM, Philadelphia, Wings Field Airport

Location: Blue Bell, PA, United States Lat: 40.138
Local Time: 12:30 PM EST (17:30 GMT) Lon: -75.265
Time Zone: US/Eastern Elev: 301 ft

Show me the last for .
Show Decoded

2018-12-18 12:15 METAR KLOM 181715Z AUTO 33005G14KT 10SM CLR 02/M06 A3009 RMK AO1 =
2018-12-18 11:55 METAR KLOM 181655Z AUTO 35008KT 10SM CLR 02/M07 A3010 RMK AO1 =
2018-12-18 11:35 METAR KLOM 181635Z AUTO 36003KT 10SM CLR 02/M06 A3010 RMK AO1 =
2018-12-18 11:15 METAR KLOM 181615Z AUTO 33007KT 270V020 10SM CLR 02/M06 A3010 RMK AO1 =
2018-12-18 10:55 METAR KLOM 181555Z AUTO 34005G14KT 10SM CLR 02/M06 A3009 RMK AO1 =
2018-12-18 10:35 METAR KLOM 181535Z AUTO 36009KT 320V020 10SM CLR 02/M07 A3010 RMK AO1 =
2018-12-18 10:15 METAR KLOM 181515Z AUTO 34006G16KT 10SM CLR 02/M07 A3009 RMK AO1 =
2018-12-18 09:55 METAR KLOM 181455Z AUTO 32005KT 10SM CLR 01/M07 A3009 RMK AO1 =
2018-12-18 09:35 METAR KLOM 181435Z AUTO 34007G16KT 320V020 10SM CLR 01/M07 A3009 RMK AO1 =
2018-12-18 09:15 METAR KLOM 181415Z AUTO 34009G15KT 310V010 10SM CLR 01/M07 A3008 RMK AO1 =
2018-12-18 08:55 METAR KLOM 181355Z AUTO 33008G15KT 300V360 10SM CLR 01/M07 A3007 RMK AO1 =
2018-12-18 08:35 METAR KLOM 181335Z AUTO 31007KT 250V350 10SM CLR 01/M06 A3006 RMK AO1 =
2018-12-18 08:15 METAR KLOM 181315Z AUTO 34004KT 10SM CLR 01/M06 A3005 RMK AO1 =
2018-12-18 07:55 METAR KLOM 181255Z AUTO 33004KT 10SM CLR 00/M06 A3004 RMK AO1 =
2018-12-18 07:35 METAR KLOM 181235Z AUTO 31006KT 10SM CLR 00/M06 A3002 RMK AO1 =
2018-12-18 07:15 METAR KLOM 181215Z AUTO 33006KT 10SM CLR 00/M06 A3001 RMK AO1 =
2018-12-18 06:55 METAR KLOM 181155Z AUTO 33006G21KT 10SM CLR 00/M06 A3001 RMK AO1 =
2018-12-18 06:35 METAR KLOM 181135Z AUTO 32005G14KT 10SM CLR 00/M07 A3000 RMK AO1 =
2018-12-18 06:15 METAR KLOM 181115Z AUTO 33006KT 10SM CLR 01/M07 A2999 RMK AO1 =
2018-12-18 05:55 METAR KLOM 181055Z AUTO 32008KT 10SM SCT050 01/M07 A2999 RMK AO1 =
2018-12-18 05:35 METAR KLOM 181035Z AUTO 33007G15KT 300V360 10SM SCT048 BKN050 01/M07 A2999 RMK
                 AO1 =
2018-12-18 05:15 METAR KLOM 181015Z AUTO 33007G16KT 10SM BKN046 BKN055 BKN065 01/M07 A2998 RMK
                 AO1 =
2018-12-18 04:55 METAR KLOM 180955Z AUTO 33005G15KT 10SM SCT048 BKN060 01/M06 A2997 RMK AO1 =
2018-12-18 04:35 METAR KLOM 180935Z AUTO 31009KT 290V350 10SM BKN050 BKN055 02/M06 A2996 RMK AO1
                 =
2018-12-18 04:15 METAR KLOM 180915Z AUTO 31005KT 10SM SCT050 02/M06 A2995 RMK AO1 =
2018-12-18 03:55 METAR KLOM 180855Z AUTO 31008G19KT 280V340 10SM SCT050 02/M06 A2994 RMK AO1 =
2018-12-18 03:35 METAR KLOM 180835Z AUTO 30010G16KT 250V330 10SM BKN050 02/M06 A2992 RMK AO1 =
2018-12-18 03:15 METAR KLOM 180815Z AUTO 30004G14KT 10SM OVC050 02/M06 A2992 RMK AO1 =
2018-12-18 02:55 METAR KLOM 180755Z AUTO 30006G17KT 10SM OVC050 02/M06 A2991 RMK AO1 =
2018-12-18 02:35 METAR KLOM 180735Z AUTO 31010G22KT 290V350 10SM OVC050 02/M06 A2991 RMK AO1 =
2018-12-18 02:15 METAR KLOM 180715Z AUTO 31009G18KT 10SM OVC050 02/M06 A2990 RMK AO1 =
2018-12-18 01:55 METAR KLOM 180655Z AUTO 30009G15KT 270V330 10SM OVC050 02/M05 A2989 RMK AO1 =
2018-12-18 01:35 METAR KLOM 180635Z AUTO 31007KT 10SM OVC050 03/M05 A2989 RMK AO1 =
2018-12-18 01:15 METAR KLOM 180615Z AUTO 31008KT 280V350 10SM OVC050 03/M05 A2988 RMK AO1 =
2018-12-18 00:55 METAR KLOM 180555Z AUTO 30006KT 10SM OVC050 03/M05 A2988 RMK AO1 =
2018-12-18 00:35 METAR KLOM 180535Z AUTO 30006G15KT 10SM OVC050 03/M05 A2988 RMK AO1 =
2018-12-18 00:15 METAR KLOM 180515Z AUTO 31009G16KT 280V350 10SM OVC050 03/M05 A2989 RMK AO1 =
2018-12-17 23:55 METAR KLOM 180455Z AUTO 30009G21KT 270V330 10SM OVC050 03/M05 A2989 RMK AO1 =
2018-12-17 23:35 METAR KLOM 180435Z AUTO 31009G17KT 270V350 10SM SCT044 OVC050 03/M04 A2989 RMK
                 AO1 =
2018-12-17 23:15 METAR KLOM 180415Z AUTO 30009G17KT 270V340 10SM OVC048 03/M03 A2987 RMK AO1 =
2018-12-17 22:55 METAR KLOM 180355Z AUTO 29005KT 10SM OVC048 03/M03 A2987 RMK AO1 =
2018-12-17 22:35 METAR KLOM 180335Z AUTO 29006KT 260V320 10SM OVC048 03/M02 A2987 RMK AO1 =
2018-12-17 22:15 METAR KLOM 180315Z AUTO 29008KT 10SM SCT044 OVC050 03/M02 A2987 RMK AO1 =
2018-12-17 21:55 METAR KLOM 180255Z AUTO 29007KT 10SM OVC050 04/M02 A2987 RMK AO1 =
2018-12-17 21:35 METAR KLOM 180235Z AUTO 30008KT 10SM BKN048 OVC050 03/M02 A2987 RMK AO1 =
2018-12-17 21:15 METAR KLOM 180215Z AUTO 31008G16KT 10SM BKN047 OVC050 04/M02 A2987 RMK AO1 =
2018-12-17 20:55 METAR KLOM 180155Z AUTO 30010G14KT 280V340 10SM BKN048 OVC050 04/M03 A2987 RMK
                 AO1 =
2018-12-17 20:35 METAR KLOM 180135Z AUTO 30006G14KT 10SM OVC048 04/M03 A2987 RMK AO1 =
2018-12-17 20:15 METAR KLOM 180115Z AUTO 30008KT 10SM OVC048 04/M03 A2987 RMK AO1 =
2018-12-17 19:55 METAR KLOM 180055Z AUTO 32005G14KT 10SM OVC048 04/M03 A2987 RMK AO1 =
2018-12-17 19:35 METAR KLOM 180035Z AUTO 30012G19KT 270V330 10SM OVC048 04/M03 A2987 RMK AO1 =
2018-12-17 19:15 METAR KLOM 180015Z AUTO 29006G15KT 10SM OVC048 05/M03 A2987 RMK AO1 =
2018-12-17 18:55 METAR KLOM 172355Z AUTO 32006G14KT 280V350 10SM OVC050 05/M03 A2986 RMK AO1 =
2018-12-17 18:35 METAR KLOM 172335Z AUTO 30006G17KT 10SM OVC050 05/M03 A2986 RMK AO1 =
2018-12-17 18:15 METAR KLOM 172315Z AUTO 32009G17KT 290V350 10SM OVC050 05/M03 A2985 RMK AO1 =
2018-12-17 17:55 METAR KLOM 172255Z AUTO 31010G18KT 10SM BKN046 OVC050 05/M02 A2985 RMK AO1 =
2018-12-17 17:35 METAR KLOM 172235Z AUTO 31004KT 10SM OVC050 05/M02 A2983 RMK AO1 =
2018-12-17 17:15 METAR KLOM 172215Z AUTO 30005G14KT 10SM OVC050 05/M02 A2982 RMK AO1 =
2018-12-17 16:55 METAR KLOM 172155Z AUTO 30008G23KT 10SM OVC050 06/M03 A2981 RMK AO1 =
2018-12-17 16:35 METAR KLOM 172135Z AUTO 30010G18KT 10SM OVC050 06/M02 A2981 RMK AO1 =
2018-12-17 16:15 METAR KLOM 172115Z AUTO 28012G19KT 10SM OVC050 06/M02 A2980 RMK AO1 =
2018-12-17 15:55 METAR KLOM 172055Z AUTO 29006G09KT 10SM OVC050 06/M02 A2979 RMK AO1 =
2018-12-17 15:35 METAR KLOM 172035Z AUTO 31012G16KT 10SM OVC050 06/M02 A2979 RMK AO1 =
2018-12-17 15:15 METAR KLOM 172015Z AUTO 30008G19KT 270V330 10SM OVC050 06/M01 A2978 RMK AO1 =
2018-12-17 14:55 METAR KLOM 171955Z AUTO 31010G20KT 10SM BKN050 06/M01 A2977 RMK AO1 =
2018-12-17 14:35 METAR KLOM 171935Z AUTO 30007G15KT 270V330 10SM SCT050 BKN055 06/M01 A2977 RMK
                 AO1 =
2018-12-17 14:15 METAR KLOM 171915Z AUTO 30011G20KT 10SM SCT039 OVC050 06/00 A2977 RMK AO1 =
2018-12-17 13:55 METAR KLOM 171855Z AUTO 31008G15KT 10SM BKN037 OVC047 07/00 A2976 RMK AO1 =
2018-12-17 13:35 METAR KLOM 171835Z AUTO 31009G15KT 280V350 10SM BKN040 OVC047 07/00 A2977 RMK
                 AO1 =
2018-12-17 13:15 METAR KLOM 171815Z AUTO 29010G17KT 260V320 10SM BKN039 OVC045 07/00 A2977 RMK
                 AO1 =
2018-12-17 12:55 METAR KLOM 171755Z AUTO 30009G15KT 280V360 10SM BKN035 OVC043 07/00 A2977 RMK
                 AO1 =
2018-12-17 12:35 METAR KLOM 171735Z AUTO 30010G16KT 270V330 10SM BKN037 07/01 A2977 RMK AO1 =

Support USWX by starting your Amazon purchase here.